Time;durP1;ratioP1;P1;durP2;ratioP2;P2;SDS_P1;SDS_P2;PMS_P1;PMS_P2;Temp;Humidity;BMP_temperature;BMP_pressure;BME280_temperature;BME280_humidity;BME280_pressure;Samples;Min_cycle;Max_cycle;Signal;HPM_P1;HPM_P2
2022/07/20 00:01:02;;;;;;;5.00;1.70;;;28.30;75.30;;;;;;12502940;28;20107;-40
2022/07/20 00:07:04;;;;;;;4.53;2.17;;;28.50;71.00;;;;;;12515132;28;20057;-39
2022/07/20 00:13:06;;;;;;;7.17;1.90;;;28.40;74.50;;;;;;12518369;28;20545;-40
2022/07/20 00:19:08;;;;;;;9.43;2.15;;;28.40;72.50;;;;;;12508384;28;20045;-38
2022/07/20 00:25:10;;;;;;;3.23;1.60;;;28.40;69.20;;;;;;12523981;28;20045;-39
2022/07/20 00:31:12;;;;;;;6.27;1.80;;;28.50;71.90;;;;;;12523716;28;20568;-38
2022/07/20 00:37:14;;;;;;;7.15;1.92;;;28.50;72.10;;;;;;12514186;28;20444;-34
2022/07/20 00:43:16;;;;;;;5.37;1.80;;;28.50;75.80;;;;;;12519326;28;20349;-34
2022/07/20 00:49:17;;;;;;;5.63;1.80;;;28.40;71.10;;;;;;12527437;28;20174;-34
2022/07/20 00:55:20;;;;;;;6.80;1.87;;;28.50;70.20;;;;;;12535856;28;20334;-34
2022/07/20 01:01:22;;;;;;;8.95;2.00;;;28.50;71.80;;;;;;12532171;28;20135;-38
2022/07/20 01:07:24;;;;;;;4.95;1.83;;;28.40;69.80;;;;;;12536049;28;20049;-34
2022/07/20 01:13:25;;;;;;;8.10;1.90;;;28.40;70.60;;;;;;12529167;28;20125;-40
2022/07/20 01:19:27;;;;;;;3.60;1.80;;;28.40;70.70;;;;;;12530559;28;20094;-38
2022/07/20 01:25:29;;;;;;;6.17;2.20;;;28.20;72.10;;;;;;12533663;28;20049;-34
2022/07/20 01:31:31;;;;;;;6.97;1.90;;;28.20;72.00;;;;;;12535033;28;20299;-34
2022/07/20 01:37:33;;;;;;;6.63;1.63;;;28.10;70.10;;;;;;12534865;28;20052;-34
2022/07/20 01:43:34;;;;;;;10.13;1.80;;;28.10;71.80;;;;;;12535040;28;20688;-38
2022/07/20 01:49:36;;;;;;;9.03;2.13;;;28.10;71.00;;;;;;12530196;28;20089;-38
2022/07/20 01:55:38;;;;;;;6.23;2.03;;;28.20;70.90;;;;;;12547914;28;20037;-38
2022/07/20 02:01:40;;;;;;;12.17;2.00;;;28.10;73.40;;;;;;12540401;28;20041;-38
2022/07/20 02:07:42;;;;;;;5.72;2.13;;;28.00;71.50;;;;;;12531072;28;20497;-36
2022/07/20 02:13:44;;;;;;;7.60;1.83;;;27.90;70.60;;;;;;12545360;28;20080;-39
2022/07/20 02:19:46;;;;;;;9.57;2.03;;;27.90;70.80;;;;;;12545370;28;20049;-39
2022/07/20 02:25:48;;;;;;;7.73;1.93;;;27.90;72.90;;;;;;12540090;28;20048;-34
2022/07/20 02:31:49;;;;;;;5.00;2.23;;;27.90;71.40;;;;;;12539600;28;20385;-34
2022/07/20 02:37:51;;;;;;;9.73;2.00;;;27.90;72.60;;;;;;12540545;28;20046;-38
2022/07/20 02:43:53;;;;;;;11.03;2.00;;;27.80;71.10;;;;;;12543046;28;20566;-38
2022/07/20 02:50:00;;;;;;;6.97;2.15;;;27.80;71.40;;;;;;12556294;28;20041;-39
2022/07/20 02:56:02;;;;;;;4.80;2.00;;;27.80;72.70;;;;;;12535890;28;20498;-38
2022/07/20 03:02:05;;;;;;;6.67;1.90;;;27.80;71.40;;;;;;12540501;28;20093;-34
2022/07/20 03:08:07;;;;;;;13.10;2.40;;;27.80;71.90;;;;;;12535473;28;20064;-34
2022/07/20 03:14:09;;;;;;;10.45;2.38;;;27.80;73.70;;;;;;12534206;28;20128;-34
2022/07/20 03:20:13;;;;;;;4.97;2.03;;;27.80;74.60;;;;;;12536724;28;20049;-39
2022/07/20 03:26:15;;;;;;;7.65;2.10;;;27.60;72.50;;;;;;12540721;28;20057;-34
2022/07/20 03:32:17;;;;;;;6.90;1.87;;;27.60;72.30;;;;;;12532932;28;20520;-38
2022/07/20 03:38:19;;;;;;;4.83;2.10;;;27.60;71.60;;;;;;12535722;28;20049;-34
2022/07/20 03:44:21;;;;;;;8.17;1.90;;;27.60;71.90;;;;;;12536904;28;20060;-38
2022/07/20 03:50:23;;;;;;;4.47;2.03;;;27.50;72.70;;;;;;12527510;28;20103;-34
2022/07/20 03:56:25;;;;;;;8.57;2.00;;;27.40;73.50;;;;;;12530498;28;20041;-38
2022/07/20 04:02:26;;;;;;;5.40;1.87;;;27.40;72.80;;;;;;12533346;28;20549;-38
2022/07/20 04:08:29;;;;;;;5.30;2.20;;;27.40;72.30;;;;;;12538445;28;20582;-34
2022/07/20 04:14:30;;;;;;;3.90;2.53;;;27.40;72.20;;;;;;12528653;28;20331;-34
2022/07/20 04:20:32;;;;;;;7.87;2.17;;;27.30;72.50;;;;;;12545918;28;20134;-35
2022/07/20 04:26:34;;;;;;;9.93;2.20;;;27.40;72.90;;;;;;12536169;28;20508;-39
2022/07/20 04:32:36;;;;;;;10.93;3.10;;;27.40;72.70;;;;;;12534095;28;20053;-39
2022/07/20 04:38:38;;;;;;;7.50;2.40;;;27.50;72.20;;;;;;12523228;28;20352;-38
2022/07/20 04:44:40;;;;;;;7.57;2.30;;;27.60;73.50;;;;;;12542113;28;20052;-34
2022/07/20 04:50:42;;;;;;;8.73;2.35;;;27.60;74.10;;;;;;12538640;28;20438;-39
2022/07/20 04:56:44;;;;;;;6.80;2.13;;;27.60;72.90;;;;;;12539769;28;20086;-35
2022/07/20 05:02:46;;;;;;;4.35;2.03;;;27.50;74.20;;;;;;12552269;28;20052;-35
2022/07/20 05:08:48;;;;;;;;;;;27.50;74.40;;;;;;12541091;28;20061;-40
2022/07/20 05:14:51;;;;;;;6.53;2.10;;;27.60;73.90;;;;;;12542557;28;19963;-38
2022/07/20 05:20:53;;;;;;;10.70;2.23;;;27.60;74.20;;;;;;12544040;28;20405;-34
2022/07/20 05:26:54;;;;;;;6.60;2.37;;;27.70;74.60;;;;;;12538498;28;20084;-39
2022/07/20 05:32:56;;;;;;;6.10;2.10;;;27.80;75.70;;;;;;12542473;28;20058;-39
2022/07/20 05:38:58;;;;;;;9.53;2.40;;;27.90;76.00;;;;;;12536326;28;20094;-35
2022/07/20 05:45:01;;;;;;;6.03;2.10;;;28.10;73.50;;;;;;12539527;28;20132;-34
2022/07/20 05:51:03;;;;;;;5.67;2.30;;;28.20;73.90;;;;;;12545476;28;20061;-35
2022/07/20 05:57:05;;;;;;;8.13;2.33;;;28.30;73.60;;;;;;12492456;28;20080;-36
2022/07/20 06:03:13;;;;;;;6.40;2.13;;;28.40;74.30;;;;;;12514084;28;20378;-39
2022/07/20 06:09:15;;;;;;;6.43;2.40;;;28.50;74.10;;;;;;12533382;28;20152;-40
2022/07/20 06:15:25;;;;;;;7.53;2.28;;;28.50;74.80;;;;;;12517326;28;20318;-39
2022/07/20 06:21:27;;;;;;;7.95;2.42;;;28.50;75.70;;;;;;12530868;28;20097;-35
2022/07/20 06:27:32;;;;;;;5.22;2.30;;;28.60;75.50;;;;;;12540783;28;20071;-38
2022/07/20 06:33:33;;;;;;;7.47;2.08;;;28.70;75.70;;;;;;12538584;28;20102;-34
2022/07/20 06:39:35;;;;;;;7.63;2.60;;;28.70;75.40;;;;;;12527350;28;20519;-39
2022/07/20 06:45:42;;;;;;;9.25;2.50;;;28.70;78.00;;;;;;12491622;28;20497;-38
2022/07/20 06:51:44;;;;;;;5.03;2.30;;;28.80;76.00;;;;;;12501921;28;20497;-38
2022/07/20 06:57:46;;;;;;;6.47;2.33;;;28.90;77.80;;;;;;12508492;28;20480;-34
2022/07/20 07:03:47;;;;;;;4.40;2.42;;;29.10;75.00;;;;;;12489341;28;20041;-39
2022/07/20 07:09:49;;;;;;;7.63;2.58;;;29.20;75.50;;;;;;12488796;28;20352;-36
2022/07/20 07:15:51;;;;;;;10.13;2.73;;;29.40;75.90;;;;;;12492685;28;20040;-34
2022/07/20 07:21:53;;;;;;;6.23;2.40;;;29.40;76.90;;;;;;12498983;28;21234;-34
2022/07/20 07:27:54;;;;;;;8.90;2.67;;;29.60;76.10;;;;;;12488021;28;20844;-36
2022/07/20 07:33:56;;;;;;;5.87;2.23;;;29.60;75.70;;;;;;12492304;28;20379;-35
2022/07/20 07:39:58;;;;;;;7.03;2.70;;;29.70;75.90;;;;;;12497862;28;20807;-39
2022/07/20 07:46:00;;;;;;;8.32;2.55;;;29.80;75.60;;;;;;12487721;28;20636;-39
2022/07/20 07:52:02;;;;;;;6.55;2.42;;;30.00;74.60;;;;;;12481694;28;20672;-40
2022/07/20 07:58:05;;;;;;;6.68;2.60;;;30.20;76.50;;;;;;12465067;28;20045;-35
2022/07/20 08:04:07;;;;;;;9.73;2.70;;;30.40;78.00;;;;;;12494860;28;20529;-38
2022/07/20 08:10:09;;;;;;;9.30;2.55;;;30.50;77.20;;;;;;12477425;28;20352;-35
2022/07/20 08:16:13;;;;;;;6.90;2.60;;;30.70;75.40;;;;;;12499480;28;20123;-38
2022/07/20 08:22:15;;;;;;;6.75;2.50;;;30.90;75.40;;;;;;12478361;28;20044;-35
2022/07/20 08:28:20;;;;;;;8.55;2.60;;;31.20;74.00;;;;;;12498141;28;20485;-39
2022/07/20 08:34:22;;;;;;;6.90;2.38;;;31.40;74.70;;;;;;12488747;28;20103;-39
2022/07/20 08:40:25;;;;;;;9.68;2.42;;;31.60;73.40;;;;;;12492214;28;20070;-34
2022/07/20 08:46:30;;;;;;;7.80;2.42;;;31.80;74.30;;;;;;12482538;28;20045;-39
2022/07/20 08:52:33;;;;;;;6.55;2.55;;;32.00;73.30;;;;;;12501495;28;20057;-34
2022/07/20 08:58:35;;;;;;;5.47;2.45;;;32.30;71.40;;;;;;12496966;28;20045;-34
2022/07/20 09:04:50;;;;;;;;;;;32.50;71.30;;;;;;12482818;28;20052;-38
2022/07/20 09:10:52;;;;;;;13.05;2.55;;;32.90;70.30;;;;;;12486901;28;20116;-34
2022/07/20 09:16:53;;;;;;;;;;;33.30;67.60;;;;;;12498058;28;20041;-34
2022/07/20 09:23:04;;;;;;;11.57;2.40;;;33.50;67.60;;;;;;12482065;28;19925;-39
2022/07/20 09:29:06;;;;;;;8.80;2.25;;;33.70;66.70;;;;;;12487415;28;20144;-35
2022/07/20 09:35:08;;;;;;;4.95;2.40;;;33.80;66.10;;;;;;12494565;28;20485;-35
2022/07/20 09:41:31;;;;;;;6.97;2.58;;;33.80;67.80;;;;;;12476586;28;20042;-35
2022/07/20 09:47:33;;;;;;;11.40;2.55;;;33.90;66.90;;;;;;12494683;28;20683;-38
2022/07/20 09:53:35;;;;;;;9.57;2.83;;;34.10;65.10;;;;;;12485494;28;20049;-34
2022/07/20 09:59:38;;;;;;;6.45;2.60;;;34.30;67.00;;;;;;12495595;28;20401;-39
2022/07/20 10:05:41;;;;;;;10.43;3.03;;;34.30;66.10;;;;;;12494395;28;20441;-35
2022/07/20 10:11:45;;;;;;;8.43;3.03;;;34.60;64.80;;;;;;12492970;28;20096;-38
2022/07/20 10:17:47;;;;;;;10.52;3.17;;;34.60;64.70;;;;;;12503230;28;20097;-39
2022/07/20 10:24:19;;;;;;;10.27;3.70;;;34.70;63.30;;;;;;12488753;28;20456;-39
2022/07/20 10:30:21;;;;;;;8.70;3.72;;;34.60;64.90;;;;;;12486463;28;20309;-36
2022/07/20 10:36:44;;;;;;;7.53;3.65;;;34.60;66.50;;;;;;12482430;28;20234;-41
2022/07/20 10:43:19;;;;;;;8.40;4.20;;;34.30;65.30;;;;;;12493187;28;20570;-40
2022/07/20 10:50:03;;;;;;;9.23;4.25;;;34.10;66.90;;;;;;12477457;28;20401;-38
2022/07/20 10:56:06;;;;;;;13.70;4.18;;;34.00;66.90;;;;;;12498181;28;20051;-35
2022/07/20 11:02:09;;;;;;;9.85;4.18;;;34.00;68.10;;;;;;12486355;28;20318;-39
2022/07/20 11:08:12;;;;;;;9.98;4.30;;;33.90;74.20;;;;;;12485148;28;20092;-40
2022/07/20 11:14:17;;;;;;;16.27;5.03;;;33.70;72.50;;;;;;12486323;28;20052;-34
2022/07/20 11:20:19;;;;;;;11.50;4.65;;;33.40;72.30;;;;;;12489535;28;20415;-34
2022/07/20 11:26:21;;;;;;;15.45;5.90;;;33.30;71.90;;;;;;12492193;28;20467;-39
2022/07/20 11:32:27;;;;;;;13.68;8.30;;;33.60;75.00;;;;;;12489947;28;20475;-39
2022/07/20 11:38:45;;;;;;;16.83;8.10;;;33.40;71.50;;;;;;12478727;28;20217;-38
2022/07/20 11:45:00;;;;;;;17.33;10.93;;;33.80;75.60;;;;;;12509156;28;20487;-34
2022/07/20 11:51:03;;;;;;;18.00;9.38;;;33.50;72.80;;;;;;12493175;28;20043;-35
2022/07/20 11:57:06;;;;;;;14.10;7.93;;;33.80;77.40;;;;;;12506223;28;20548;-34
2022/07/20 12:03:08;;;;;;;13.63;7.10;;;33.70;75.00;;;;;;12498093;28;20048;-38
2022/07/20 12:09:15;;;;;;;12.35;6.75;;;33.80;77.90;;;;;;12495932;28;20123;-39
2022/07/20 12:15:17;;;;;;;12.30;5.68;;;34.00;73.00;;;;;;12479258;28;20349;-36
2022/07/20 12:21:21;;;;;;;14.23;6.68;;;34.10;75.50;;;;;;12495255;28;20068;-35
2022/07/20 12:27:26;;;;;;;12.15;5.45;;;34.30;73.80;;;;;;12492296;28;20057;-35
2022/07/20 12:33:28;;;;;;;12.30;5.50;;;34.20;75.60;;;;;;12488748;28;20042;-40
2022/07/20 12:39:47;;;;;;;10.25;6.35;;;34.30;78.70;;;;;;12499030;28;20053;-34
2022/07/20 12:45:49;;;;;;;15.45;7.20;;;34.30;78.00;;;;;;12496464;28;20048;-38
2022/07/20 12:51:52;;;;;;;13.27;6.95;;;34.00;74.70;;;;;;12485262;28;20258;-39
2022/07/20 12:57:54;;;;;;;9.02;5.75;;;34.10;74.10;;;;;;12490830;28;20129;-38
2022/07/20 13:03:55;;;;;;;18.08;6.80;;;34.40;79.70;;;;;;12479303;28;20253;-35
2022/07/20 13:09:57;;;;;;;15.02;7.20;;;34.50;80.00;;;;;;12493338;28;20080;-39
2022/07/20 13:15:59;;;;;;;9.32;6.45;;;34.40;75.20;;;;;;12473630;28;20681;-35
2022/07/20 13:22:01;;;;;;;11.45;6.85;;;34.50;75.80;;;;;;12494553;28;20168;-40
2022/07/20 13:28:04;;;;;;;17.42;6.53;;;35.10;76.20;;;;;;12509894;28;20479;-35
2022/07/20 13:34:12;;;;;;;13.43;7.35;;;35.30;75.20;;;;;;12512440;28;20098;-38
2022/07/20 13:40:14;;;;;;;14.63;7.22;;;35.20;76.80;;;;;;12492584;28;20041;-35
2022/07/20 13:46:17;;;;;;;14.15;7.57;;;35.00;80.00;;;;;;12485125;28;20087;-38
2022/07/20 13:52:21;;;;;;;14.10;7.95;;;34.60;83.60;;;;;;12503574;28;20060;-34
2022/07/20 13:58:25;;;;;;;13.70;7.82;;;34.70;78.90;;;;;;12501464;28;20072;-35
2022/07/20 14:04:27;;;;;;;14.18;7.22;;;34.70;79.60;;;;;;12502595;28;20127;-40
2022/07/20 14:10:30;;;;;;;13.25;7.28;;;34.70;82.60;;;;;;12494362;28;20152;-39
2022/07/20 14:16:33;;;;;;;14.55;7.28;;;34.70;79.40;;;;;;12507099;28;20612;-35
2022/07/20 14:22:36;;;;;;;15.30;7.38;;;34.90;85.30;;;;;;12504713;28;20152;-34
2022/07/20 14:28:38;;;;;;;14.30;7.38;;;34.80;82.80;;;;;;12503996;28;20047;-42
2022/07/20 14:34:40;;;;;;;16.15;7.68;;;34.90;84.30;;;;;;12503959;28;20071;-36
2022/07/20 14:40:42;;;;;;;13.95;7.43;;;34.80;82.40;;;;;;12499607;28;20057;-39
2022/07/20 14:46:44;;;;;;;11.48;7.65;;;35.00;84.70;;;;;;12503138;28;20394;-35
2022/07/20 14:52:46;;;;;;;12.95;7.82;;;34.90;82.50;;;;;;12494502;28;20337;-40
2022/07/20 14:58:48;;;;;;;13.27;7.60;;;34.80;81.80;;;;;;12482326;28;20096;-35
2022/07/20 15:04:51;;;;;;;12.85;6.75;;;34.70;84.30;;;;;;12482971;28;20600;-36
2022/07/20 15:10:55;;;;;;;14.65;7.40;;;34.70;83.60;;;;;;12491382;28;20305;-39
2022/07/20 15:16:57;;;;;;;16.58;7.32;;;34.80;82.80;;;;;;12478066;28;20123;-39
2022/07/20 15:22:58;;;;;;;11.48;6.93;;;34.90;84.60;;;;;;12497000;28;20098;-34
2022/07/20 15:29:00;;;;;;;11.63;7.45;;;34.90;85.70;;;;;;12515095;28;20045;-39
2022/07/20 15:35:03;;;;;;;18.52;9.60;;;35.00;84.20;;;;;;12517589;28;20476;-35
2022/07/20 15:41:05;;;;;;;14.25;9.45;;;35.10;84.60;;;;;;12533435;28;20130;-38
2022/07/20 15:47:08;;;;;;;17.85;10.50;;;34.90;87.80;;;;;;12526736;28;20167;-39
2022/07/20 15:53:09;;;;;;;17.95;10.68;;;34.70;87.50;;;;;;12539460;28;20087;-39
2022/07/20 15:59:11;;;;;;;14.85;10.85;;;34.50;85.00;;;;;;12532722;28;20083;-38
2022/07/20 16:05:15;;;;;;;18.45;11.50;;;34.40;88.20;;;;;;12523390;28;20086;-34
2022/07/20 16:11:17;;;;;;;18.17;10.40;;;34.30;89.10;;;;;;12521319;28;20048;-40
2022/07/20 16:17:20;;;;;;;14.25;10.00;;;34.20;90.30;;;;;;12533968;28;20045;-39
2022/07/20 16:23:22;;;;;;;18.48;10.52;;;34.10;90.30;;;;;;12530300;28;20045;-38
2022/07/20 16:29:24;;;;;;;16.20;10.23;;;34.00;90.70;;;;;;12531872;28;20063;-34
2022/07/20 16:35:26;;;;;;;16.13;10.77;;;34.10;91.00;;;;;;12527010;28;20056;-39
2022/07/20 16:41:29;;;;;;;18.02;10.80;;;34.00;87.50;;;;;;12541179;28;20045;-39
2022/07/20 16:47:31;;;;;;;15.55;10.27;;;34.00;90.00;;;;;;12521445;28;20524;-34
2022/07/20 16:53:33;;;;;;;19.02;10.85;;;34.00;92.10;;;;;;12523121;28;20081;-38
2022/07/20 16:59:35;;;;;;;16.70;10.95;;;33.90;87.30;;;;;;12538715;28;20037;-36
2022/07/20 17:05:37;;;;;;;18.45;10.57;;;33.80;91.20;;;;;;12542532;28;20175;-38
2022/07/20 17:11:39;;;;;;;15.52;10.23;;;33.90;90.80;;;;;;12540187;28;20041;-38
2022/07/20 17:17:41;;;;;;;19.27;11.23;;;34.00;91.90;;;;;;12547703;28;20045;-39
2022/07/20 17:23:42;;;;;;;18.42;10.18;;;33.90;90.50;;;;;;12552420;28;20048;-35
2022/07/20 17:29:44;;;;;;;14.73;10.80;;;33.90;92.10;;;;;;12542050;28;20135;-38
2022/07/20 17:35:46;;;;;;;15.30;10.50;;;33.60;91.20;;;;;;12562924;28;20048;-34
2022/07/20 17:41:49;;;;;;;13.68;10.38;;;33.50;92.40;;;;;;12540369;28;20425;-35
2022/07/20 17:47:51;;;;;;;18.77;11.15;;;33.60;93.10;;;;;;12529625;28;20067;-35
2022/07/20 17:53:52;;;;;;;19.70;11.23;;;33.50;91.10;;;;;;12535879;28;20604;-38
2022/07/20 17:59:54;;;;;;;15.50;10.65;;;33.20;90.80;;;;;;12530888;28;20046;-34
2022/07/20 18:05:56;;;;;;;18.73;10.98;;;33.50;93.70;;;;;;12525178;28;20044;-34
2022/07/20 18:11:58;;;;;;;15.15;10.52;;;33.40;93.60;;;;;;12520134;28;20045;-35
2022/07/20 18:18:00;;;;;;;25.08;11.00;;;32.60;93.10;;;;;;12536085;28;20064;-34
2022/07/20 18:24:02;;;;;;;;;;;32.30;92.70;;;;;;12523387;28;20098;-34
2022/07/20 18:30:04;;;;;;;;;;;31.90;93.80;;;;;;12541398;28;19928;-34
2022/07/20 18:36:06;;;;;;;15.07;10.73;;;31.60;96.70;;;;;;12510374;28;20292;-34
2022/07/20 18:42:08;;;;;;;16.38;11.15;;;31.40;96.50;;;;;;12531792;28;20049;-39
2022/07/20 18:48:10;;;;;;;13.20;10.02;;;31.50;94.80;;;;;;12533858;28;20106;-39
2022/07/20 18:54:12;;;;;;;17.35;10.20;;;31.10;97.70;;;;;;12531677;28;20057;-38
2022/07/20 19:00:14;;;;;;;21.40;9.98;;;30.60;96.60;;;;;;12528934;28;20588;-34
2022/07/20 19:06:16;;;;;;;13.63;10.02;;;30.60;98.20;;;;;;12515782;28;20107;-38
2022/07/20 19:12:17;;;;;;;12.43;9.23;;;30.50;99.00;;;;;;12535475;28;20098;-38
2022/07/20 19:18:19;;;;;;;11.43;9.07;;;30.40;99.10;;;;;;12528982;28;20053;-34
2022/07/20 19:24:21;;;;;;;16.88;10.25;;;30.20;99.90;;;;;;12531479;28;20048;-34
2022/07/20 19:30:23;;;;;;;13.95;9.80;;;30.20;99.90;;;;;;12532740;28;20048;-34
2022/07/20 19:36:25;;;;;;;18.83;10.65;;;29.80;99.90;;;;;;12521212;28;20061;-34
2022/07/20 19:42:27;;;;;;;16.93;10.63;;;29.60;99.90;;;;;;12535579;28;20037;-34
2022/07/20 19:48:28;;;;;;;16.60;10.00;;;29.30;99.90;;;;;;12538553;28;20295;-38
2022/07/20 19:54:31;;;;;;;10.23;7.68;;;29.10;99.90;;;;;;12529557;28;20051;-38
2022/07/20 20:00:32;;;;;;;10.88;7.57;;;29.00;96.80;;;;;;12516367;28;20052;-39
2022/07/20 20:06:35;;;;;;;9.93;7.23;;;28.80;96.10;;;;;;12531972;28;20045;-34
2022/07/20 20:12:37;;;;;;;;;;;28.80;99.40;;;;;;12533050;28;20340;-34
2022/07/20 20:18:39;;;;;;;9.75;7.05;;;28.80;96.80;;;;;;12520053;28;20649;-34
2022/07/20 20:24:41;;;;;;;12.30;7.10;;;28.90;98.30;;;;;;12516140;28;20040;-38
2022/07/20 20:30:43;;;;;;;11.02;6.88;;;28.60;97.80;;;;;;12529195;28;20057;-34
2022/07/20 20:36:46;;;;;;;10.13;6.80;;;28.60;99.10;;;;;;12520231;28;20081;-38
2022/07/20 20:42:48;;;;;;;10.85;7.50;;;28.30;99.60;;;;;;12533594;28;20503;-34
2022/07/20 20:48:50;;;;;;;8.65;7.57;;;28.30;99.40;;;;;;12525883;28;20109;-34
2022/07/20 20:54:52;;;;;;;9.75;7.32;;;28.30;99.90;;;;;;12535156;28;20512;-34
2022/07/20 21:00:54;;;;;;;11.20;7.50;;;28.20;99.90;;;;;;12522702;28;20073;-39
2022/07/20 21:06:56;;;;;;;13.83;8.37;;;27.80;98.60;;;;;;12528679;28;20536;-39
2022/07/20 21:12:58;;;;;;;16.83;8.37;;;27.60;97.50;;;;;;12536796;28;20515;-34
2022/07/20 21:19:00;;;;;;;11.50;8.00;;;27.40;99.90;;;;;;12537202;28;20049;-38
2022/07/20 21:25:03;;;;;;;13.50;7.63;;;27.40;99.90;;;;;;12528019;28;20098;-38
2022/07/20 21:31:05;;;;;;;12.48;8.45;;;27.40;99.90;;;;;;12549062;28;20044;-37
2022/07/20 21:37:07;;;;;;;11.07;8.38;;;27.40;99.90;;;;;;12533701;28;20102;-38
2022/07/20 21:43:09;;;;;;;12.57;8.07;;;27.40;99.90;;;;;;12539228;28;20045;-34
2022/07/20 21:49:11;;;;;;;11.57;8.17;;;27.40;99.90;;;;;;12540828;28;20092;-34
2022/07/20 21:55:13;;;;;;;15.90;8.33;;;27.30;99.90;;;;;;12538791;28;20049;-38
2022/07/20 22:01:17;;;;;;;11.57;7.90;;;27.30;99.90;;;;;;12535938;28;20500;-37
2022/07/20 22:07:19;;;;;;;11.73;8.10;;;27.10;99.90;;;;;;12544387;28;20136;-34
2022/07/20 22:13:21;;;;;;;14.77;8.83;;;26.90;99.90;;;;;;12543873;28;20535;-34
2022/07/20 22:19:23;;;;;;;13.13;8.03;;;26.50;99.90;;;;;;12548171;28;20491;-34
2022/07/20 22:25:25;;;;;;;12.73;7.93;;;26.40;99.90;;;;;;12543737;28;20072;-34
2022/07/20 22:31:29;;;;;;;11.93;7.55;;;26.40;99.90;;;;;;12525559;28;20075;-34
2022/07/20 22:37:32;;;;;;;15.93;8.02;;;26.50;99.90;;;;;;12535939;28;20044;-38
2022/07/20 22:43:35;;;;;;;12.40;7.85;;;26.60;99.90;;;;;;12540772;28;20061;-34
2022/07/20 22:49:37;;;;;;;12.35;7.70;;;26.70;99.90;;;;;;12524536;28;20405;-34
2022/07/20 22:55:39;;;;;;;15.82;8.07;;;26.70;99.90;;;;;;12533163;28;20325;-38
2022/07/20 23:01:45;;;;;;;17.05;8.50;;;26.30;99.90;;;;;;12533320;28;20068;-34
2022/07/20 23:07:50;;;;;;;15.88;3.72;;;25.40;99.90;;;;;;12537853;28;20560;-34
2022/07/20 23:13:52;;;;;;;8.95;4.10;;;22.80;99.90;;;;;;12525404;28;20049;-34
2022/07/20 23:19:54;;;;;;;4.90;2.78;;;21.20;99.90;;;;;;12538239;28;20041;-33
2022/07/20 23:25:56;;;;;;;8.75;3.88;;;20.20;99.90;;;;;;12521597;28;20102;-38
2022/07/20 23:31:58;;;;;;;8.20;3.90;;;19.80;99.90;;;;;;12535096;28;20403;-37
2022/07/20 23:38:00;;;;;;;6.70;4.32;;;19.70;99.90;;;;;;12524970;28;20042;-34
2022/07/20 23:44:02;;;;;;;7.15;3.55;;;19.80;99.90;;;;;;12532487;28;20470;-33
2022/07/20 23:50:04;;;;;;;9.45;3.30;;;19.70;99.90;;;;;;12521313;28;20087;-37
2022/07/20 23:56:06;;;;;;;7.72;2.97;;;19.60;99.90;;;;;;12535396;28;20507;-37
